createdAt,value
2023-04-27T00:01:07.197Z,99940.14
2023-04-27T00:03:39.202Z,99938.30
2023-04-27T00:06:11.887Z,99939.04
2023-04-27T00:08:43.708Z,99934.20
2023-04-27T00:11:15.365Z,99930.89
2023-04-27T00:13:47.335Z,99930.06
2023-04-27T00:16:19.169Z,99926.67
2023-04-27T00:18:51.167Z,99928.77
2023-04-27T00:21:22.966Z,99927.67
2023-04-27T00:23:55.086Z,99925.73
2023-04-27T00:26:26.902Z,99930.88
2023-04-27T00:28:58.885Z,99931.09
2023-04-27T00:31:30.740Z,99935.17
2023-04-27T00:34:02.658Z,99935.26
2023-04-27T00:36:36.062Z,99936.05
2023-04-27T00:39:08.040Z,99938.08
2023-04-27T00:41:41.119Z,99939.23
2023-04-27T00:44:12.922Z,99939.67
2023-04-27T00:46:45.229Z,99940.05
2023-04-27T00:49:18.716Z,99942.20
2023-04-27T00:51:50.792Z,99940.14
2023-04-27T00:54:23.973Z,99941.70
2023-04-27T00:56:56.639Z,99942.89
2023-04-27T00:59:28.380Z,99946.71
2023-04-27T01:02:00.660Z,99944.30
2023-04-27T01:04:33.220Z,99947.53
2023-04-27T01:07:05.171Z,99950.09
2023-04-27T01:09:37.039Z,99948.90
2023-04-27T01:12:09.862Z,99949.30
2023-04-27T01:14:41.679Z,99947.58
2023-04-27T01:17:14.173Z,99946.80
2023-04-27T01:19:46.239Z,99949.24
2023-04-27T01:22:18.075Z,99948.23
2023-04-27T01:24:52.025Z,99949.84
2023-04-27T01:27:23.842Z,99949.19
2023-04-27T01:29:55.910Z,99947.19
2023-04-27T01:32:29.292Z,99948.45
2023-04-27T01:35:01.142Z,99947.48
2023-04-27T01:37:33.648Z,99950.23
2023-04-27T01:40:06.716Z,99947.21
2023-04-27T01:42:38.681Z,99955.19
2023-04-27T01:45:14.323Z,99955.31
2023-04-27T01:47:46.222Z,99959.61
2023-04-27T01:50:18.016Z,99959.30
2023-04-27T01:52:50.673Z,99957.81
2023-04-27T01:55:22.756Z,99955.36
2023-04-27T01:57:53.136Z,99952.71
2023-04-27T02:00:25.253Z,99953.91
2023-04-27T02:02:57.513Z,99954.77
2023-04-27T02:05:29.657Z,99960.05
2023-04-27T02:08:01.535Z,99957.29
2023-04-27T02:10:33.591Z,99960.77
2023-04-27T02:13:05.411Z,99961.69
2023-04-27T02:15:37.373Z,99961.16
2023-04-27T02:18:09.404Z,99964.90
2023-04-27T02:20:41.718Z,99960.55
2023-04-27T02:23:13.683Z,99960.15
2023-04-27T02:25:47.514Z,99961.30
2023-04-27T02:28:19.307Z,99957.98
2023-04-27T02:30:51.737Z,99955.83
2023-04-27T02:33:23.812Z,99957.70
2023-04-27T02:35:55.840Z,99962.36
2023-04-27T02:38:27.907Z,99968.96
2023-04-27T02:40:59.709Z,99968.80
2023-04-27T02:43:31.329Z,99964.63
2023-04-27T02:46:06.301Z,99968.62
2023-04-27T02:48:38.083Z,99966.20
2023-04-27T02:51:10.068Z,99965.96
2023-04-27T02:53:41.859Z,99967.71
2023-04-27T02:56:13.623Z,99971.38
2023-04-27T02:58:45.946Z,99977.48
2023-04-27T03:01:18.871Z,99978.23
2023-04-27T03:03:51.044Z,99975.65
2023-04-27T03:06:21.492Z,99975.00
2023-04-27T03:08:53.309Z,99973.56
2023-04-27T03:11:26.013Z,99974.75
2023-04-27T03:13:57.891Z,99976.60
2023-04-27T03:16:29.920Z,99983.47
2023-04-27T03:19:00.475Z,99981.93
2023-04-27T03:21:32.813Z,99983.39
2023-04-27T03:24:03.472Z,99986.95
2023-04-27T03:26:35.584Z,99988.06
2023-04-27T03:29:09.327Z,99987.73
2023-04-27T03:31:41.186Z,99988.34
2023-04-27T03:34:13.130Z,99987.17
2023-04-27T03:36:45.155Z,99987.84
2023-04-27T03:42:33.307Z,99998.31
2023-04-27T03:45:02.276Z,99995.81
2023-04-27T03:47:30.877Z,100002.02
2023-04-27T03:49:59.648Z,99999.18
2023-04-27T03:52:28.366Z,99998.59
2023-04-27T03:54:56.797Z,100000.73
2023-04-27T03:57:25.595Z,100003.33
2023-04-27T03:59:54.147Z,100002.66
2023-04-27T04:02:23.530Z,100005.42
2023-04-27T04:04:52.741Z,100008.27
2023-04-27T04:07:21.630Z,100008.94
2023-04-27T04:09:50.086Z,100009.66
2023-04-27T04:12:18.565Z,100014.33
2023-04-27T04:14:48.420Z,100013.30
2023-04-27T04:17:17.040Z,100014.20
2023-04-27T04:19:45.436Z,100017.36
2023-04-27T04:22:14.235Z,100016.98
2023-04-27T04:24:43.052Z,100023.17
2023-04-27T04:27:11.739Z,100021.79
2023-04-27T04:29:40.258Z,100024.35
2023-04-27T04:32:09.191Z,100022.07
2023-04-27T04:34:38.779Z,100023.35
2023-04-27T04:37:07.327Z,100023.16
2023-04-27T04:39:35.929Z,100026.68
2023-04-27T04:42:04.916Z,100025.42
2023-04-27T04:44:33.474Z,100026.87
2023-04-27T04:47:02.316Z,100031.77
2023-04-27T04:49:31.622Z,100031.66
2023-04-27T04:52:00.108Z,100028.77
2023-04-27T04:54:28.746Z,100032.21
2023-04-27T04:56:58.417Z,100034.13
2023-04-27T04:59:27.525Z,100038.98
2023-04-27T05:01:56.346Z,100041.46
2023-04-27T05:04:25.964Z,100043.65
2023-04-27T05:06:54.415Z,100047.71
2023-04-27T05:09:23.041Z,100047.48
2023-04-27T05:11:51.818Z,100049.13
2023-04-27T05:14:20.255Z,100049.52
2023-04-27T05:16:48.889Z,100049.07
2023-04-27T05:19:17.858Z,100046.70
2023-04-27T05:21:48.546Z,100047.41
2023-04-27T05:24:17.079Z,100046.19
2023-04-27T05:26:45.655Z,100048.92
2023-04-27T05:29:14.689Z,100050.31
2023-04-27T05:31:43.647Z,100051.14
2023-04-27T05:34:12.746Z,100051.95
2023-04-27T05:36:41.527Z,100055.56
2023-04-27T05:39:10.901Z,100057.58
2023-04-27T05:41:39.492Z,100057.09
2023-04-27T05:44:08.221Z,100060.53
2023-04-27T05:46:38.729Z,100062.20
2023-04-27T05:49:07.613Z,100064.74
2023-04-27T05:51:37.825Z,100065.98
2023-04-27T05:54:07.539Z,100068.77
2023-04-27T05:56:37.244Z,100068.66
2023-04-27T05:59:06.096Z,100067.64
2023-04-27T06:01:34.629Z,100067.67
2023-04-27T06:04:03.354Z,100066.88
2023-04-27T06:06:35.049Z,100069.92
2023-04-27T06:09:03.677Z,100067.66
2023-04-27T06:11:32.171Z,100072.20
2023-04-27T06:14:00.697Z,100070.70
2023-04-27T06:16:29.256Z,100068.15
2023-04-27T06:18:57.794Z,100068.07
2023-04-27T06:21:26.309Z,100068.37
2023-04-27T06:23:54.930Z,100067.02
2023-04-27T06:26:23.475Z,100069.13
2023-04-27T06:28:52.068Z,100074.11
2023-04-27T06:31:20.652Z,100068.76
2023-04-27T06:33:49.236Z,100069.30
2023-04-27T06:36:17.705Z,100072.32
2023-04-27T06:38:46.220Z,100072.65
2023-04-27T06:41:14.821Z,100072.98
2023-04-27T06:43:43.738Z,100072.65
2023-04-27T06:46:12.258Z,100077.84
2023-04-27T06:48:40.790Z,100078.98
2023-04-27T06:51:09.294Z,100080.89
2023-04-27T06:53:37.858Z,100078.14
2023-04-27T06:56:10.149Z,100073.50
2023-04-27T06:58:38.896Z,100075.40
2023-04-27T07:01:07.435Z,100074.88
2023-04-27T07:03:36.360Z,100069.95
2023-04-27T07:06:06.864Z,100068.75
2023-04-27T07:08:36.330Z,100068.60
2023-04-27T07:11:05.002Z,100063.69
2023-04-27T07:13:33.432Z,100065.18
2023-04-27T07:16:01.985Z,100062.65
2023-04-27T07:18:30.385Z,100065.16
2023-04-27T07:20:58.893Z,100058.49
2023-04-27T07:23:27.298Z,100063.63
2023-04-27T07:25:55.995Z,100062.45
2023-04-27T07:28:24.530Z,100059.91
2023-04-27T07:30:53.162Z,100060.55
2023-04-27T07:33:22.020Z,100059.99
2023-04-27T07:35:50.864Z,100060.50
2023-04-27T07:38:20.095Z,100059.50
2023-04-27T07:40:49.078Z,100059.58
2023-04-27T07:43:17.800Z,100060.11
2023-04-27T07:45:46.339Z,100058.79
2023-04-27T07:48:14.916Z,100058.86
2023-04-27T07:50:43.413Z,100059.06
2023-04-27T07:53:12.240Z,100058.48
2023-04-27T07:55:40.832Z,100056.20
2023-04-27T07:58:09.342Z,100059.33
2023-04-27T08:00:37.848Z,100059.08
2023-04-27T08:03:07.342Z,100058.43
2023-04-27T08:05:36.158Z,100059.49
2023-04-27T08:08:05.823Z,100064.42
2023-04-27T08:10:34.591Z,100066.92
2023-04-27T08:13:03.277Z,100071.54
2023-04-27T08:15:31.804Z,100074.77
2023-04-27T08:18:00.415Z,100074.60
2023-04-27T08:20:30.578Z,100072.79
2023-04-27T08:22:59.021Z,100071.20
2023-04-27T08:25:27.485Z,100075.92
2023-04-27T08:27:56.027Z,100076.56
2023-04-27T08:30:25.266Z,100067.31
2023-04-27T08:32:54.388Z,100066.91
2023-04-27T08:35:22.830Z,100069.86
2023-04-27T08:37:51.332Z,100072.54
2023-04-27T08:40:20.430Z,100068.41
2023-04-27T08:42:56.373Z,100070.98
2023-04-27T08:45:26.145Z,100076.66
2023-04-27T08:47:55.041Z,100079.24
2023-04-27T08:50:26.702Z,100080.02
2023-04-27T08:52:55.232Z,100082.65
2023-04-27T08:55:24.063Z,100084.34
2023-04-27T08:57:56.920Z,100085.23
2023-04-27T09:00:38.057Z,100086.36
2023-04-27T09:03:07.387Z,100088.38
2023-04-27T09:05:36.230Z,100085.45
2023-04-27T09:08:07.803Z,100089.89
2023-04-27T09:10:46.694Z,100089.14
2023-04-27T09:13:15.462Z,100088.02
2023-04-27T09:15:47.082Z,100087.59
2023-04-27T09:18:18.241Z,100085.52
2023-04-27T09:20:47.710Z,100083.82
2023-04-27T09:23:27.674Z,100081.52
2023-04-27T09:25:56.964Z,100078.91
2023-04-27T09:28:27.414Z,100080.18
2023-04-27T09:30:57.795Z,100079.97
2023-04-27T09:33:27.121Z,100080.96
2023-04-27T09:35:56.376Z,100076.27
2023-04-27T09:38:25.393Z,100080.08
2023-04-27T09:40:54.693Z,100085.98
2023-04-27T09:43:24.259Z,100083.20
2023-04-27T09:45:54.428Z,100083.56
2023-04-27T09:48:24.369Z,100086.77
2023-04-27T09:50:53.459Z,100084.30
2023-04-27T09:53:26.145Z,100085.66
2023-04-27T09:56:03.984Z,100090.08
2023-04-27T09:58:58.956Z,100088.42
2023-04-27T10:01:37.416Z,100087.23
2023-04-27T10:04:21.407Z,100090.49
2023-04-27T10:06:59.088Z,100088.88
2023-04-27T10:09:35.697Z,100085.42
2023-04-27T10:12:16.679Z,100083.48
2023-04-27T10:14:55.708Z,100086.23
2023-04-27T10:17:31.477Z,100087.49
2023-04-27T10:20:01.313Z,100084.18
2023-04-27T10:22:40.896Z,100086.83
2023-04-27T10:25:20.881Z,100087.84
2023-04-27T10:27:54.043Z,100084.80
2023-04-27T10:30:23.944Z,100085.00
2023-04-27T10:32:54.025Z,100084.59
2023-04-27T10:35:32.182Z,100084.02
2023-04-27T10:38:08.102Z,100087.30
2023-04-27T10:40:37.625Z,100088.34
2023-04-27T10:43:11.725Z,100085.92
2023-04-27T10:45:41.450Z,100093.80
2023-04-27T10:48:12.804Z,100098.64
2023-04-27T10:50:43.970Z,100100.77
2023-04-27T10:53:12.765Z,100095.30
2023-04-27T10:55:41.434Z,100096.25
2023-04-27T10:58:10.350Z,100096.60
2023-04-27T11:00:43.618Z,100094.80
2023-04-27T11:03:15.968Z,100093.73
2023-04-27T11:05:46.149Z,100090.40
2023-04-27T11:08:17.178Z,100090.71
2023-04-27T11:10:49.316Z,100088.09
2023-04-27T11:13:19.716Z,100085.92
2023-04-27T11:15:51.241Z,100092.32
2023-04-27T11:18:21.672Z,100091.67
2023-04-27T11:20:51.795Z,100091.48
2023-04-27T11:23:28.330Z,100092.21
2023-04-27T11:25:57.118Z,100095.38
2023-04-27T11:28:26.202Z,100098.88
2023-04-27T11:30:58.872Z,100096.48
2023-04-27T11:33:27.891Z,100096.94
2023-04-27T11:35:56.860Z,100092.36
2023-04-27T11:38:26.842Z,100088.98
2023-04-27T11:41:03.612Z,100092.04
2023-04-27T11:43:32.817Z,100093.86
2023-04-27T11:46:07.551Z,100094.86
2023-04-27T11:48:37.913Z,100097.99
2023-04-27T11:51:07.441Z,100100.00
2023-04-27T11:53:37.784Z,100098.23
2023-04-27T11:56:09.925Z,100094.62
2023-04-27T11:58:39.871Z,100101.17
2023-04-27T12:01:09.902Z,100094.81
2023-04-27T12:03:38.668Z,100097.25
2023-04-27T12:06:27.271Z,100093.60
2023-04-27T12:08:56.876Z,100095.91
2023-04-27T12:11:27.484Z,100094.98
2023-04-27T12:13:56.872Z,100099.44
2023-04-27T12:16:25.562Z,100096.90
2023-04-27T12:18:54.349Z,100098.02
2023-04-27T12:21:24.198Z,100100.93
2023-04-27T12:23:52.788Z,100098.62
2023-04-27T12:26:21.297Z,100099.77
2023-04-27T12:28:49.801Z,100104.98
2023-04-27T12:31:23.226Z,100101.90
2023-04-27T12:33:53.412Z,100102.65
2023-04-27T12:36:22.038Z,100105.33
2023-04-27T12:38:51.097Z,100104.30
2023-04-27T12:41:19.730Z,100098.67
2023-04-27T12:43:48.736Z,100102.42
2023-04-27T12:46:18.061Z,100101.02
2023-04-27T12:48:46.845Z,100098.15
2023-04-27T12:51:16.075Z,100098.85
2023-04-27T12:53:44.862Z,100094.06
2023-04-27T12:56:13.400Z,100087.80
2023-04-27T12:58:42.251Z,100091.95
2023-04-27T13:01:14.166Z,100088.20
2023-04-27T13:03:43.131Z,100093.32
2023-04-27T13:06:12.200Z,100096.32
2023-04-27T13:08:41.448Z,100096.43
2023-04-27T13:11:10.270Z,100098.24
2023-04-27T13:13:39.108Z,100099.63
2023-04-27T13:16:08.185Z,100099.23
2023-04-27T13:18:37.264Z,100097.47
2023-04-27T13:21:06.417Z,100101.90
2023-04-27T13:23:35.268Z,100100.08
2023-04-27T13:26:03.991Z,100099.03
2023-04-27T13:28:32.878Z,100093.25
2023-04-27T13:31:01.454Z,100098.15
2023-04-27T13:33:32.397Z,100094.42
2023-04-27T13:36:03.221Z,100093.52
2023-04-27T13:38:31.700Z,100090.73
2023-04-27T13:41:00.247Z,100092.70
2023-04-27T13:43:29.136Z,100090.20
2023-04-27T13:46:01.278Z,100090.97
2023-04-27T13:48:31.297Z,100094.53
2023-04-27T13:51:01.195Z,100094.25
2023-04-27T13:53:29.700Z,100095.13
2023-04-27T13:55:58.677Z,100092.23
2023-04-27T13:58:31.701Z,100091.58
2023-04-27T14:01:00.525Z,100093.44
2023-04-27T14:03:29.656Z,100090.21
2023-04-27T15:14:35.907Z,100105.67
2023-04-27T15:17:07.909Z,100104.19
2023-04-27T15:19:38.664Z,100105.47
2023-04-27T15:22:10.587Z,100107.13
2023-04-27T15:24:42.571Z,100104.59
2023-04-27T15:27:14.402Z,100106.63
2023-04-27T15:29:49.104Z,100105.83
2023-04-27T15:32:23.220Z,100110.64
2023-04-27T15:34:55.159Z,100112.08
2023-04-27T15:37:28.444Z,100112.23
2023-04-27T15:40:07.669Z,100114.55
2023-04-27T15:42:39.615Z,100112.23
2023-04-27T15:45:12.890Z,100113.52
2023-04-27T15:47:44.841Z,100111.13
2023-04-27T15:50:17.986Z,100109.01
2023-04-27T15:52:50.138Z,100110.29
2023-04-27T15:55:21.304Z,100106.75
2023-04-27T15:57:53.287Z,100108.97
2023-04-27T16:00:24.756Z,100114.73
2023-04-27T16:02:56.929Z,100111.35
2023-04-27T16:05:29.615Z,100107.84
2023-04-27T16:08:01.639Z,100111.36
2023-04-27T16:10:32.088Z,100104.69
2023-04-27T16:13:04.329Z,100111.38
2023-04-27T16:15:36.479Z,100111.96
2023-04-27T16:18:08.491Z,100112.40
2023-04-27T16:20:38.767Z,100110.46
2023-04-27T16:23:11.173Z,100110.09
2023-04-27T16:25:43.153Z,100110.60
2023-04-27T16:28:13.616Z,100108.41
2023-04-27T16:30:49.353Z,100110.41
2023-04-27T16:33:21.798Z,100114.88
2023-04-27T16:35:53.664Z,100112.85
2023-04-27T16:38:25.560Z,100110.73
2023-04-27T16:40:58.411Z,100112.45
2023-04-27T16:43:31.424Z,100113.30
2023-04-27T16:46:03.362Z,100113.84
2023-04-27T16:48:33.957Z,100112.99
2023-04-27T16:51:06.632Z,100112.89
2023-04-27T16:53:39.083Z,100110.45
2023-04-27T16:56:12.220Z,100109.04
2023-04-27T16:58:44.005Z,100113.58
2023-04-27T17:01:14.669Z,100117.28
2023-04-27T17:03:46.819Z,100114.21
2023-04-27T17:06:20.312Z,100118.00
2023-04-27T17:08:52.071Z,100118.34
2023-04-27T17:11:23.999Z,100121.25
2023-04-27T17:13:55.833Z,100124.05
2023-04-27T17:16:28.170Z,100126.22
2023-04-27T17:19:00.288Z,100125.60
2023-04-27T17:21:32.490Z,100123.39
2023-04-27T17:24:03.250Z,100122.96
2023-04-27T17:26:35.126Z,100123.76
2023-04-27T17:29:06.889Z,100122.61
2023-04-27T17:31:39.030Z,100121.42
2023-04-27T17:34:12.090Z,100119.41
2023-04-27T17:36:44.081Z,100122.59
2023-04-27T17:39:14.939Z,100124.22
2023-04-27T17:41:47.045Z,100125.91
2023-04-27T17:44:18.012Z,100128.98
2023-04-27T17:46:50.852Z,100127.88
2023-04-27T17:49:23.280Z,100126.39
2023-04-27T17:51:55.563Z,100123.45
2023-04-27T17:54:29.933Z,100121.92
2023-04-27T17:57:03.018Z,100124.20
2023-04-27T17:59:35.437Z,100119.56
2023-04-27T18:02:07.644Z,100122.92
2023-04-27T18:04:40.248Z,100116.20
2023-04-27T18:07:12.654Z,100117.24
